Time,TemperatureF,DewpointF,PressureIn,WindDirection,WindDirectionDegrees,WindSpeedMPH,WindSpeedGustMPH,Humidity,HourlyPrecipIn,Conditions,Clouds,dailyrainin,SoftwareType,DateUTC
2013-06-10 00:06:00,84.7,48.0,30.00,SSE,159,4.0,11.0,28,0.00,,,0.00,weatherlink.com 1.10,2013-06-10 06:06:00,
2013-06-10 00:21:00,84.0,48.0,30.01,ESE,115,9.0,11.0,29,0.00,,,0.00,weatherlink.com 1.10,2013-06-10 06:21:00,
2013-06-10 00:37:00,83.5,48.0,30.01,SE,145,0.0,7.0,29,0.00,,,0.00,weatherlink.com 1.10,2013-06-10 06:37:00,
2013-06-10 00:52:00,82.5,48.0,30.01,SSE,156,1.0,8.0,30,0.00,,,0.00,weatherlink.com 1.10,2013-06-10 06:52:00,
2013-06-10 01:07:00,82.5,48.0,30.00,SSW,192,6.0,12.0,30,0.00,,,0.00,weatherlink.com 1.10,2013-06-10 07:07:00,
2013-06-10 01:22:00,82.4,48.0,30.00,South,186,3.0,8.0,30,0.00,,,0.00,weatherlink.com 1.10,2013-06-10 07:22:00,
2013-06-10 01:37:00,82.1,48.0,30.01,SSW,194,4.0,9.0,30,0.00,,,0.00,weatherlink.com 1.10,2013-06-10 07:37:00,
2013-06-10 01:52:00,82.0,48.0,30.01,SSE,163,3.0,11.0,30,0.00,,,0.00,weatherlink.com 1.10,2013-06-10 07:52:00,
2013-06-10 02:08:00,81.5,48.0,30.01,SSE,159,3.0,8.0,31,0.00,,,0.00,weatherlink.com 1.10,2013-06-10 08:08:00,
2013-06-10 02:23:00,81.3,48.0,30.01,SSE,164,4.0,7.0,31,0.00,,,0.00,weatherlink.com 1.10,2013-06-10 08:23:00,
2013-06-10 02:38:00,81.0,48.0,30.01,SSW,193,3.0,10.0,31,0.00,,,0.00,weatherlink.com 1.10,2013-06-10 08:38:00,
2013-06-10 02:53:00,80.6,48.0,30.01,SSW,196,2.0,7.0,32,0.00,,,0.00,weatherlink.com 1.10,2013-06-10 08:53:00,
2013-06-10 03:08:00,80.2,48.0,30.00,SSW,193,2.0,7.0,32,0.00,,,0.00,weatherlink.com 1.10,2013-06-10 09:08:00,
2013-06-10 03:24:00,79.6,47.0,30.01,SSW,205,1.0,5.0,32,0.00,,,0.00,weatherlink.com 1.10,2013-06-10 09:24:00,
2013-06-10 03:39:00,79.4,48.0,30.01,South,184,3.0,7.0,33,0.00,,,0.00,weatherlink.com 1.10,2013-06-10 09:39:00,
2013-06-10 03:54:00,79.4,48.0,30.01,South,187,1.0,8.0,33,0.00,,,0.00,weatherlink.com 1.10,2013-06-10 09:54:00,
2013-06-10 04:09:00,78.9,47.0,30.01,South,187,3.0,7.0,33,0.00,,,0.00,weatherlink.com 1.10,2013-06-10 10:09:00,
2013-06-10 04:24:00,78.4,48.0,30.01,South,186,1.0,6.0,34,0.00,,,0.00,weatherlink.com 1.10,2013-06-10 10:24:00,
2013-06-10 04:40:00,78.3,48.0,30.01,South,186,3.0,7.0,34,0.00,,,0.00,weatherlink.com 1.10,2013-06-10 10:40:00,
2013-06-10 04:55:00,78.2,48.0,30.01,South,188,4.0,7.0,34,0.00,,,0.00,weatherlink.com 1.10,2013-06-10 10:55:00,
2013-06-10 05:10:00,77.9,48.0,30.02,South,173,3.0,8.0,35,0.00,,,0.00,weatherlink.com 1.10,2013-06-10 11:10:00,
2013-06-10 05:25:00,77.9,48.0,30.02,South,184,3.0,9.0,35,0.00,,,0.00,weatherlink.com 1.10,2013-06-10 11:25:00,
2013-06-10 05:40:00,77.7,48.0,30.02,South,184,3.0,7.0,35,0.00,,,0.00,weatherlink.com 1.10,2013-06-10 11:40:00,
2013-06-10 05:55:00,77.3,48.0,30.02,South,190,3.0,7.0,36,0.00,,,0.00,weatherlink.com 1.10,2013-06-10 11:55:00,
2013-06-10 06:11:00,77.0,48.0,30.02,South,186,6.0,7.0,36,0.00,,,0.00,weatherlink.com 1.10,2013-06-10 12:11:00,
2013-06-10 06:26:00,77.0,49.0,30.02,SSW,199,3.0,6.0,37,0.00,,,0.00,weatherlink.com 1.10,2013-06-10 12:26:00,
2013-06-10 06:41:00,77.2,49.0,30.03,South,186,3.0,5.0,37,0.00,,,0.00,weatherlink.com 1.10,2013-06-10 12:41:00,
2013-06-10 06:56:00,78.0,50.0,30.03,SSE,161,3.0,10.0,37,0.00,,,0.00,weatherlink.com 1.10,2013-06-10 12:56:00,
2013-06-10 07:11:00,78.5,50.0,30.03,SE,125,7.0,10.0,37,0.00,,,0.00,weatherlink.com 1.10,2013-06-10 13:11:00,
2013-06-10 07:26:00,79.2,49.0,30.04,South,187,9.0,11.0,35,0.00,,,0.00,weatherlink.com 1.10,2013-06-10 13:26:00,
2013-06-10 07:42:00,80.0,49.0,30.04,South,173,7.0,10.0,34,0.00,,,0.00,weatherlink.com 1.10,2013-06-10 13:42:00,
2013-06-10 07:57:00,80.6,50.0,30.04,South,181,6.0,9.0,34,0.00,,,0.00,weatherlink.com 1.10,2013-06-10 13:57:00,
2013-06-10 08:12:00,81.4,50.0,30.05,SSE,159,6.0,12.0,33,0.00,,,0.00,weatherlink.com 1.10,2013-06-10 14:12:00,
2013-06-10 08:27:00,81.9,50.0,30.06,SSE,153,8.0,13.0,33,0.00,,,0.00,weatherlink.com 1.10,2013-06-10 14:27:00,
2013-06-10 08:43:00,82.5,50.0,30.06,SSW,202,6.0,11.0,32,0.00,,,0.00,weatherlink.com 1.10,2013-06-10 14:43:00,
2013-06-10 08:58:00,83.5,49.0,30.06,SW,216,10.0,10.0,30,0.00,,,0.00,weatherlink.com 1.10,2013-06-10 14:58:00,
2013-06-10 09:13:00,84.2,49.0,30.06,SSW,202,4.0,9.0,30,0.00,,,0.00,weatherlink.com 1.10,2013-06-10 15:13:00,
2013-06-10 09:28:00,85.7,49.0,30.05,SW,223,12.0,12.0,28,0.00,,,0.00,weatherlink.com 1.10,2013-06-10 15:28:00,
2013-06-10 09:43:00,86.8,49.0,30.06,South,182,8.0,10.0,27,0.00,,,0.00,weatherlink.com 1.10,2013-06-10 15:43:00,
2013-06-10 09:58:00,88.5,49.0,30.05,South,177,4.0,10.0,26,0.00,,,0.00,weatherlink.com 1.10,2013-06-10 15:58:00,
2013-06-10 10:14:00,88.8,49.0,30.05,South,171,8.0,12.0,26,0.00,,,0.00,weatherlink.com 1.10,2013-06-10 16:14:00,
2013-06-10 10:29:00,90.5,49.0,30.05,South,176,5.0,10.0,24,0.00,,,0.00,weatherlink.com 1.10,2013-06-10 16:29:00,
2013-06-10 10:44:00,92.0,50.0,30.05,SSE,160,9.0,13.0,24,0.00,,,0.00,weatherlink.com 1.10,2013-06-10 16:44:00,
2013-06-10 10:59:00,92.9,50.0,30.05,SSE,155,8.0,12.0,23,0.00,,,0.00,weatherlink.com 1.10,2013-06-10 16:59:00,
2013-06-10 11:14:00,94.0,51.0,30.04,SSE,157,4.0,14.0,23,0.00,,,0.00,weatherlink.com 1.10,2013-06-10 17:14:00,
2013-06-10 11:29:00,95.1,49.0,30.04,ESE,122,4.0,11.0,21,0.00,,,0.00,weatherlink.com 1.10,2013-06-10 17:29:00,
2013-06-10 11:45:00,96.6,49.0,30.04,South,169,4.0,12.0,20,0.00,,,0.00,weatherlink.com 1.10,2013-06-10 17:45:00,
2013-06-10 12:00:00,97.3,50.0,30.03,SE,132,3.0,11.0,20,0.00,,,0.00,weatherlink.com 1.10,2013-06-10 18:00:00,
2013-06-10 12:15:00,98.2,47.0,30.02,SSW,208,4.0,14.0,18,0.00,,,0.00,weatherlink.com 1.10,2013-06-10 18:15:00,
2013-06-10 12:30:00,99.5,48.0,30.02,South,190,5.0,12.0,18,0.00,,,0.00,weatherlink.com 1.10,2013-06-10 18:30:00,
2013-06-10 12:46:00,100.9,48.0,30.01,South,177,10.0,11.0,17,0.00,,,0.00,weatherlink.com 1.10,2013-06-10 18:46:00,
2013-06-10 13:01:00,99.8,44.0,30.00,WSW,258,2.0,10.0,15,0.00,,,0.00,weatherlink.com 1.10,2013-06-10 19:01:00,
2013-06-10 13:31:00,102.7,44.0,30.00,SE,143,10.0,11.0,14,0.00,,,0.00,weatherlink.com 1.10,2013-06-10 19:31:00,
2013-06-10 13:46:00,103.1,43.0,29.99,SSE,148,6.0,10.0,13,0.00,,,0.00,weatherlink.com 1.10,2013-06-10 19:46:00,
2013-06-10 14:01:00,103.7,43.0,29.99,North,11,3.0,9.0,13,0.00,,,0.00,weatherlink.com 1.10,2013-06-10 20:01:00,
2013-06-10 14:17:00,104.3,44.0,29.98,South,178,3.0,10.0,13,0.00,,,0.00,weatherlink.com 1.10,2013-06-10 20:17:00,
2013-06-10 14:32:00,105.0,44.0,29.97,SE,144,0.0,13.0,13,0.00,,,0.00,weatherlink.com 1.10,2013-06-10 20:32:00,
2013-06-10 14:47:00,104.9,42.0,29.96,SSW,211,4.0,11.0,12,0.00,,,0.00,weatherlink.com 1.10,2013-06-10 20:47:00,
2013-06-10 15:02:00,103.5,41.0,29.96,SW,225,0.0,14.0,12,0.00,,,0.00,weatherlink.com 1.10,2013-06-10 21:02:00,
2013-06-10 15:18:00,104.1,41.0,29.95,SW,234,7.0,12.0,12,0.00,,,0.00,weatherlink.com 1.10,2013-06-10 21:18:00,
2013-06-10 15:33:00,106.1,41.0,29.95,East,80,3.0,14.0,11,0.00,,,0.00,weatherlink.com 1.10,2013-06-10 21:33:00,
2013-06-10 15:48:00,106.8,39.0,29.94,ESE,113,8.0,12.0,10,0.00,,,0.00,weatherlink.com 1.10,2013-06-10 21:48:00,
2013-06-10 16:03:00,106.6,39.0,29.94,SSW,193,11.0,13.0,10,0.00,,,0.00,weatherlink.com 1.10,2013-06-10 22:03:00,
2013-06-10 16:18:00,106.0,41.0,29.93,SSE,165,2.0,12.0,11,0.00,,,0.00,weatherlink.com 1.10,2013-06-10 22:18:00,
2013-06-10 16:34:00,106.5,39.0,29.93,ESE,115,4.0,8.0,10,0.00,,,0.00,weatherlink.com 1.10,2013-06-10 22:34:00,
2013-06-10 16:49:00,107.7,37.0,29.92,South,173,5.0,11.0,9,0.00,,,0.00,weatherlink.com 1.10,2013-06-10 22:49:00,
2013-06-10 17:04:00,107.2,33.0,29.92,East,83,0.0,11.0,8,0.00,,,0.00,weatherlink.com 1.10,2013-06-10 23:04:00,
2013-06-10 17:19:00,106.7,33.0,29.91,NNW,342,2.0,7.0,8,0.00,,,0.00,weatherlink.com 1.10,2013-06-10 23:19:00,
2013-06-10 17:35:00,105.5,29.0,29.91,NW,306,4.0,8.0,7,0.00,,,0.00,weatherlink.com 1.10,2013-06-10 23:35:00,
2013-06-10 17:50:00,106.3,36.0,29.91,SSE,157,9.0,10.0,9,0.00,,,0.00,weatherlink.com 1.10,2013-06-10 23:50:00,
2013-06-10 18:05:00,105.4,35.0,29.91,SSE,148,5.0,10.0,9,0.00,,,0.00,weatherlink.com 1.10,2013-06-11 00:05:00,
2013-06-10 18:20:00,104.9,35.0,29.90,South,190,8.0,12.0,9,0.00,,,0.00,weatherlink.com 1.10,2013-06-11 00:20:00,
2013-06-10 18:35:00,104.2,37.0,29.90,SSE,168,3.0,9.0,10,0.00,,,0.00,weatherlink.com 1.10,2013-06-11 00:35:00,
2013-06-10 18:51:00,104.7,37.0,29.91,East,85,6.0,10.0,10,0.00,,,0.00,weatherlink.com 1.10,2013-06-11 00:51:00,
2013-06-10 19:06:00,100.1,40.0,29.92,East,96,14.0,26.0,13,0.00,,,0.00,weatherlink.com 1.10,2013-06-11 01:06:00,
2013-06-10 19:21:00,97.8,41.0,29.93,ESE,119,16.0,25.0,14,0.00,,,0.00,weatherlink.com 1.10,2013-06-11 01:21:00,
2013-06-10 19:36:00,97.4,40.0,29.92,SE,133,14.0,18.0,14,0.00,,,0.00,weatherlink.com 1.10,2013-06-11 01:36:00,
2013-06-10 19:51:00,96.8,40.0,29.92,SE,126,11.0,17.0,14,0.00,,,0.00,weatherlink.com 1.10,2013-06-11 01:51:00,
2013-06-10 20:06:00,95.7,41.0,29.91,SSE,150,8.0,15.0,15,0.00,,,0.00,weatherlink.com 1.10,2013-06-11 02:06:00,
2013-06-10 20:22:00,94.9,38.0,29.91,SSE,158,5.0,11.0,14,0.00,,,0.00,weatherlink.com 1.10,2013-06-11 02:22:00,
2013-06-10 20:37:00,94.9,38.0,29.92,SE,144,3.0,9.0,14,0.00,,,0.00,weatherlink.com 1.10,2013-06-11 02:37:00,
2013-06-10 20:52:00,94.1,39.0,29.92,SE,140,5.0,8.0,15,0.00,,,0.00,weatherlink.com 1.10,2013-06-11 02:52:00,
2013-06-10 21:07:00,93.1,40.0,29.93,SSE,156,2.0,6.0,16,0.00,,,0.00,weatherlink.com 1.10,2013-06-11 03:07:00,
2013-06-10 21:22:00,92.3,43.0,29.93,SSE,155,1.0,6.0,18,0.00,,,0.00,weatherlink.com 1.10,2013-06-11 03:22:00,
2013-06-10 21:38:00,91.6,44.0,29.94,SSE,150,2.0,6.0,19,0.00,,,0.00,weatherlink.com 1.10,2013-06-11 03:38:00,
2013-06-10 21:53:00,90.6,45.0,29.95,SE,137,3.0,8.0,21,0.00,,,0.00,weatherlink.com 1.10,2013-06-11 03:53:00,
2013-06-10 22:08:00,89.3,47.0,29.96,SE,128,4.0,7.0,23,0.00,,,0.00,weatherlink.com 1.10,2013-06-11 04:08:00,
2013-06-10 22:23:00,88.8,41.0,29.97,SE,126,6.0,10.0,19,0.00,,,0.00,weatherlink.com 1.10,2013-06-11 04:23:00,
2013-06-10 22:38:00,88.6,40.0,29.98,SE,136,8.0,11.0,18,0.00,,,0.00,weatherlink.com 1.10,2013-06-11 04:38:00,
2013-06-10 22:54:00,88.1,36.0,29.98,SSE,165,4.0,11.0,16,0.00,,,0.00,weatherlink.com 1.10,2013-06-11 04:54:00,
2013-06-10 23:09:00,87.7,34.0,29.98,South,186,5.0,7.0,15,0.00,,,0.00,weatherlink.com 1.10,2013-06-11 05:09:00,
2013-06-10 23:24:00,87.5,34.0,29.99,South,173,4.0,9.0,15,0.00,,,0.00,weatherlink.com 1.10,2013-06-11 05:24:00,
2013-06-10 23:40:00,87.5,34.0,29.99,South,175,6.0,11.0,15,0.00,,,0.00,weatherlink.com 1.10,2013-06-11 05:40:00,
2013-06-10 23:55:00,87.2,34.0,29.99,SSW,202,5.0,11.0,15,0.00,,,0.00,weatherlink.com 1.10,2013-06-11 05:55:00,